createdAt,value
2022-08-12T00:04:21.699Z,53.08
2022-08-12T00:09:40.129Z,53.39
2022-08-12T00:14:58.438Z,53.52
2022-08-12T00:20:18.105Z,53.26
2022-08-12T00:26:05.464Z,53.13
2022-08-12T00:31:14.614Z,52.75
2022-08-12T00:36:35.876Z,53.27
2022-08-12T00:41:55.709Z,52.97
2022-08-12T00:46:58.895Z,53.94
2022-08-12T00:52:10.052Z,53.90
2022-08-12T00:57:13.214Z,53.84
2022-08-12T01:02:22.462Z,54.52
2022-08-12T01:07:45.159Z,55.22
2022-08-12T01:12:46.325Z,55.81
2022-08-12T01:17:47.736Z,55.86
2022-08-12T01:23:16.402Z,56.17
2022-08-12T01:28:21.094Z,56.31
2022-08-12T01:33:23.125Z,56.73
2022-08-12T01:38:30.083Z,56.60
2022-08-12T01:43:33.080Z,56.72
2022-08-12T01:48:49.517Z,56.58
2022-08-12T01:54:04.497Z,56.37
2022-08-12T01:59:25.532Z,56.67
2022-08-12T02:04:55.391Z,56.76
2022-08-12T02:10:50.270Z,58.14
2022-08-12T02:15:59.964Z,58.13
2022-08-12T02:21:05.080Z,58.32
2022-08-12T02:26:08.397Z,58.31
2022-08-12T02:31:11.033Z,59.10
2022-08-12T02:36:11.617Z,58.82
2022-08-12T02:41:13.686Z,59.29
2022-08-12T02:46:19.810Z,59.73
2022-08-12T02:51:24.378Z,60.04
2022-08-12T02:56:28.139Z,60.99
2022-08-12T03:01:33.928Z,60.94
2022-08-12T03:06:44.708Z,60.00
2022-08-12T03:11:51.766Z,60.69
2022-08-12T03:17:09.510Z,61.81
2022-08-12T03:22:14.694Z,61.16
2022-08-12T03:27:15.798Z,60.99
2022-08-12T03:32:35.530Z,62.03
2022-08-12T03:37:41.005Z,62.84
2022-08-12T03:43:05.238Z,63.03
2022-08-12T03:48:28.403Z,63.13
2022-08-12T03:53:48.362Z,63.72
2022-08-12T03:59:07.048Z,63.66
2022-08-12T04:04:10.556Z,63.58
2022-08-12T04:09:15.748Z,63.24
2022-08-12T04:14:20.729Z,63.20
2022-08-12T04:19:24.624Z,62.50
2022-08-12T04:24:25.913Z,61.81
2022-08-12T04:30:30.427Z,61.70
2022-08-12T04:34:50.103Z,61.79
2022-08-12T04:39:51.326Z,62.57
2022-08-12T04:44:52.469Z,62.24
2022-08-12T04:49:54.449Z,62.50
2022-08-12T04:54:55.606Z,62.05
2022-08-12T04:59:56.221Z,62.95
2022-08-12T05:05:01.100Z,62.09
2022-08-12T05:10:02.608Z,61.86
2022-08-12T05:15:03.461Z,62.02
2022-08-12T05:20:22.451Z,61.48
2022-08-12T05:25:23.328Z,60.37
2022-08-12T05:30:23.958Z,60.34
2022-08-12T05:35:26.151Z,60.24
2022-08-12T05:40:26.845Z,59.61
2022-08-12T05:45:27.452Z,59.00
2022-08-12T05:50:29.423Z,59.14
2022-08-12T05:55:31.462Z,58.51
2022-08-12T06:00:33.459Z,58.46
2022-08-12T06:05:52.695Z,58.05
2022-08-12T06:10:57.126Z,57.14
2022-08-12T06:15:57.881Z,56.56
2022-08-12T06:21:01.629Z,56.46
2022-08-12T06:26:03.308Z,56.32
2022-08-12T06:36:29.458Z,55.07
2022-08-12T06:42:27.729Z,54.60
2022-08-12T06:47:14.549Z,53.51
2022-08-12T06:52:17.276Z,53.02
2022-08-12T06:58:05.549Z,52.48
2022-08-12T07:02:38.741Z,52.44
2022-08-12T07:07:42.163Z,52.86
2022-08-12T07:12:42.919Z,53.38
2022-08-12T07:17:43.650Z,52.93
2022-08-12T07:22:45.628Z,52.18
2022-08-12T07:27:46.729Z,51.33
2022-08-12T07:32:49.735Z,49.73
2022-08-12T07:37:53.163Z,49.08
2022-08-12T07:42:54.433Z,48.01
2022-08-12T07:47:55.633Z,46.59
2022-08-12T07:52:59.846Z,45.83
2022-08-12T07:58:02.664Z,44.47
2022-08-12T08:03:03.377Z,43.56
2022-08-12T08:08:13.665Z,43.23
2022-08-12T08:13:15.341Z,44.10
2022-08-12T08:18:26.248Z,45.21
2022-08-12T08:23:46.642Z,45.95
2022-08-12T08:28:47.510Z,45.86
2022-08-12T08:34:01.466Z,45.21
2022-08-12T08:39:12.775Z,45.07
2022-08-12T08:44:13.846Z,45.62
2022-08-12T08:49:15.820Z,45.27
2022-08-12T08:54:17.827Z,45.24
2022-08-12T08:59:20.431Z,44.53
2022-08-12T09:04:28.244Z,43.72
2022-08-12T09:10:03.464Z,41.75
2022-08-12T09:20:29.465Z,39.88
2022-08-12T09:25:33.271Z,39.11
2022-08-12T09:30:41.785Z,38.62
2022-08-12T09:35:44.167Z,38.11
2022-08-12T09:41:02.024Z,38.52
2022-08-12T09:46:21.995Z,37.72
2022-08-12T09:51:23.092Z,37.58
2022-08-12T09:56:59.309Z,37.61
2022-08-12T10:02:42.849Z,38.79
2022-08-12T10:07:19.011Z,39.03
2022-08-12T10:13:06.597Z,39.40
2022-08-12T10:18:07.678Z,40.00
2022-08-12T10:23:09.422Z,40.47
2022-08-12T10:28:32.501Z,40.01
2022-08-12T10:33:50.665Z,39.40
2022-08-12T10:38:56.540Z,38.02
2022-08-12T10:43:58.565Z,36.90
2022-08-12T10:49:05.411Z,37.24
2022-08-12T10:54:07.818Z,37.80
2022-08-12T10:59:15.803Z,36.31
2022-08-12T11:04:34.228Z,34.75
2022-08-12T11:09:55.786Z,34.70
2022-08-12T11:15:00.121Z,34.79
2022-08-12T11:20:20.155Z,34.44
2022-08-12T11:25:24.634Z,33.65
2022-08-12T11:30:47.821Z,33.17
2022-08-12T11:35:48.416Z,32.32
2022-08-12T11:40:51.273Z,32.60
2022-08-12T11:45:56.723Z,32.79
2022-08-12T11:50:57.542Z,32.66
2022-08-12T11:55:58.154Z,32.68
2022-08-12T12:06:22.607Z,33.17
2022-08-12T12:11:23.865Z,33.00
2022-08-12T12:16:27.326Z,32.51
2022-08-12T12:21:47.788Z,32.62
2022-08-12T12:26:59.796Z,32.96
2022-08-12T12:32:09.876Z,33.44
2022-08-12T12:37:16.428Z,32.92
2022-08-12T12:42:43.005Z,32.60
2022-08-12T12:47:58.524Z,32.13
2022-08-12T12:52:59.573Z,32.71
2022-08-12T12:58:02.007Z,31.94
2022-08-12T13:03:03.964Z,31.77
2022-08-12T13:08:21.699Z,31.12
2022-08-12T13:14:09.180Z,31.02
2022-08-12T13:18:53.404Z,30.82
2022-08-12T13:23:56.144Z,31.08
2022-08-12T13:28:57.872Z,31.15
2022-08-12T13:34:32.419Z,31.05
2022-08-12T13:39:22.646Z,30.66
2022-08-12T13:44:23.811Z,30.24
2022-08-12T13:49:53.824Z,29.69
2022-08-12T13:54:56.095Z,29.78
2022-08-12T14:00:00.293Z,30.07
2022-08-12T14:05:02.887Z,31.12
2022-08-12T14:10:38.953Z,31.86
2022-08-12T14:15:53.511Z,31.13
2022-08-12T14:20:58.499Z,29.61
2022-08-12T14:26:01.557Z,30.02
2022-08-12T14:31:05.348Z,30.16
2022-08-12T14:36:22.739Z,29.70
2022-08-12T14:41:36.798Z,29.70
2022-08-12T14:46:47.065Z,29.01
2022-08-12T14:52:44.083Z,29.10
2022-08-12T14:57:23.656Z,28.79
2022-08-12T15:02:25.945Z,28.89
2022-08-12T15:07:33.383Z,29.04
2022-08-12T15:12:50.466Z,28.24
2022-08-12T15:17:59.689Z,28.37
2022-08-12T15:23:04.774Z,28.04
2022-08-12T15:28:22.227Z,28.27
2022-08-12T15:33:25.326Z,29.17
2022-08-12T15:38:47.038Z,28.35
2022-08-12T15:44:17.184Z,29.18
2022-08-12T15:49:16.687Z,28.72
2022-08-12T15:54:34.916Z,28.64
2022-08-12T16:00:04.495Z,28.01
2022-08-12T16:05:01.294Z,27.90
2022-08-12T16:10:05.886Z,28.08
2022-08-12T16:15:09.593Z,27.66
2022-08-12T16:20:17.986Z,27.32
2022-08-12T16:25:24.413Z,26.53
2022-08-12T16:30:44.438Z,26.98
2022-08-12T16:35:50.854Z,25.96
2022-08-12T16:40:56.956Z,25.56
2022-08-12T16:46:05.002Z,23.17
2022-08-12T16:51:20.695Z,22.51
2022-08-12T16:56:23.760Z,21.79
2022-08-12T17:01:35.934Z,20.35
2022-08-12T17:06:44.255Z,20.41
2022-08-12T17:11:49.353Z,20.07
2022-08-12T17:16:52.008Z,20.13
2022-08-12T17:22:02.076Z,20.68
2022-08-12T17:27:15.764Z,21.95
2022-08-12T17:32:17.031Z,21.47
2022-08-12T17:37:22.834Z,21.88
2022-08-12T17:42:34.816Z,21.99
2022-08-12T17:47:36.923Z,22.07
2022-08-12T17:52:38.786Z,22.26
2022-08-12T17:57:43.245Z,23.83
2022-08-12T18:02:44.019Z,26.54
2022-08-12T18:07:46.126Z,29.81
2022-08-12T18:12:53.537Z,30.91
2022-08-12T18:18:00.151Z,32.69
2022-08-12T18:23:03.121Z,33.52
2022-08-12T18:28:16.553Z,34.22
2022-08-12T18:33:25.519Z,35.04
2022-08-12T18:38:27.926Z,35.68
2022-08-12T18:43:30.406Z,37.07
2022-08-12T18:48:41.774Z,37.33
2022-08-12T18:54:06.977Z,38.06
2022-08-12T18:59:07.188Z,38.76
2022-08-12T19:04:12.269Z,39.26
2022-08-12T19:09:14.942Z,40.01
2022-08-12T19:14:27.568Z,40.51
2022-08-12T19:19:41.282Z,40.36
2022-08-12T19:25:00.423Z,41.18
2022-08-12T19:30:06.569Z,41.93
2022-08-12T19:36:07.776Z,42.34
2022-08-12T19:40:34.391Z,42.60
2022-08-12T19:45:43.352Z,43.07
2022-08-12T19:50:53.064Z,43.85
2022-08-12T19:55:55.470Z,43.64
2022-08-12T20:00:57.412Z,44.08
2022-08-12T20:06:06.289Z,44.69
2022-08-12T20:12:13.460Z,44.93
2022-08-12T20:16:52.218Z,45.70
2022-08-12T20:21:58.065Z,46.26
2022-08-12T20:26:59.366Z,46.35
2022-08-12T20:32:01.935Z,46.65
2022-08-12T20:37:04.692Z,47.42
2022-08-12T20:42:08.190Z,47.62
2022-08-12T20:47:20.263Z,47.63
2022-08-12T20:52:22.458Z,48.28
2022-08-12T20:57:25.187Z,48.16
2022-08-12T21:02:45.689Z,48.38
2022-08-12T21:07:51.916Z,48.69
2022-08-12T21:12:53.323Z,49.16
2022-08-12T21:18:11.471Z,49.41
2022-08-12T21:23:23.768Z,50.09
2022-08-12T21:28:27.453Z,50.00
2022-08-12T21:33:58.640Z,50.03
2022-08-12T21:38:58.143Z,50.10
2022-08-12T21:44:01.602Z,50.24
2022-08-12T21:49:05.619Z,50.33
2022-08-12T21:54:09.981Z,50.58
2022-08-12T21:59:14.407Z,50.99
2022-08-12T22:04:35.647Z,51.67
2022-08-12T22:09:43.181Z,52.44
2022-08-12T22:14:44.535Z,52.86
2022-08-12T22:19:49.635Z,53.04
2022-08-12T22:24:51.670Z,53.18
2022-08-12T22:30:19.628Z,53.71
2022-08-12T22:35:55.591Z,53.50
2022-08-12T22:40:58.359Z,54.29
2022-08-12T22:46:20.617Z,55.20
2022-08-12T22:51:24.088Z,55.27
2022-08-12T22:56:30.986Z,55.29
2022-08-12T23:01:52.610Z,54.79
2022-08-12T23:07:05.527Z,54.39
2022-08-12T23:12:08.429Z,54.52
2022-08-12T23:17:40.317Z,55.64
2022-08-12T23:22:56.007Z,55.72
2022-08-12T23:28:29.466Z,54.99
2022-08-12T23:34:01.915Z,55.38
2022-08-12T23:38:58.676Z,56.18
2022-08-12T23:44:06.792Z,56.68
2022-08-12T23:49:55.388Z,57.41
2022-08-12T23:54:38.566Z,57.83
2022-08-12T23:59:43.570Z,58.13
